Time;durP1;ratioP1;P1;durP2;ratioP2;P2;SDS_P1;SDS_P2;PMS_P1;PMS_P2;Temp;Humidity;BMP_temperature;BMP_pressure;BME280_temperature;BME280_humidity;BME280_pressure;Samples;Min_cycle;Max_cycle;Signal;HPM_P1;HPM_P2
2024/04/14 00:01:06;;;;;;;4.70;4.20;;;;;;;15.12;66.27;98807.52;108343;1257;59767;-90
2024/04/14 00:03:37;;;;;;;5.90;4.40;;;;;;;15.10;66.35;98808.83;108867;1257;73545;-94
2024/04/14 00:06:07;;;;;;;4.70;3.70;;;;;;;15.06;66.44;98806.95;108786;1257;73611;-90
2024/04/14 00:08:35;;;;;;;5.60;4.20;;;;;;;15.03;66.45;98805.97;108910;1256;71874;-91
2024/04/14 00:11:02;;;;;;;6.50;5.20;;;;;;;15.00;66.60;98809.63;108857;1256;60049;-91
2024/04/14 00:13:31;;;;;;;10.00;5.90;;;;;;;14.98;66.86;98814.65;107429;1256;61140;-91
2024/04/14 00:16:13;;;;;;;6.30;5.40;;;;;;;14.95;66.91;98822.30;108184;1263;72300;-89
2024/04/14 00:18:40;;;;;;;4.80;4.20;;;;;;;14.92;67.08;98822.40;108300;1256;72495;-91
2024/04/14 00:21:07;;;;;;;5.60;4.20;;;;;;;14.87;67.34;98817.73;108271;1256;72924;-91
2024/04/14 00:23:44;;;;;;;5.50;3.70;;;;;;;14.82;67.54;98821.31;107943;1256;61269;-91
2024/04/14 00:26:13;;;;;;;5.20;3.30;;;;;;;14.77;67.91;98817.04;105603;1265;61193;-92
2024/04/14 00:28:48;;;;;;;5.30;3.90;;;;;;;14.74;67.88;98810.60;105430;1267;73598;-91
2024/04/14 00:31:17;;;;;;;6.00;3.30;;;;;;;14.71;68.00;98810.31;105559;1257;74760;-89
2024/04/14 00:33:50;;;;;;;5.20;4.00;;;;;;;14.69;67.94;98806.48;105444;1262;71372;-90
2024/04/14 00:36:20;;;;;;;8.40;3.10;;;;;;;14.68;68.02;98806.20;106027;1256;61232;-89
2024/04/14 00:38:52;;;;;;;4.10;3.20;;;;;;;14.66;68.13;98801.67;106755;1256;61184;-91
2024/04/14 00:41:25;;;;;;;5.60;3.60;;;;;;;14.64;68.30;98798.23;105960;1265;78571;-90
2024/04/14 00:44:41;;;;;;;4.50;3.50;;;;;;;14.61;68.52;98803.30;106471;1256;72285;-87
2024/04/14 00:47:35;;;;;;;3.50;3.00;;;;;;;14.56;68.72;98796.31;104470;1274;74012;-92
2024/04/14 00:50:10;;;;;;;4.30;3.10;;;;;;;14.54;69.09;98792.92;104347;1273;61208;-91
2024/04/14 00:52:52;;;;;;;5.20;3.80;;;;;;;14.51;69.18;98794.45;104618;1271;61410;-91
2024/04/14 00:55:50;;;;;;;5.10;3.20;;;;;;;14.49;69.34;98786.96;104407;1276;75456;-90
2024/04/14 00:58:27;;;;;;;4.10;3.30;;;;;;;14.47;69.33;98780.08;104601;1271;74441;-92
2024/04/14 01:01:31;;;;;;;4.00;3.60;;;;;;;14.47;69.50;98775.98;104555;1273;72913;-91
2024/04/14 01:04:56;;;;;;;4.20;3.60;;;;;;;14.45;69.57;98779.70;104462;1276;61186;-92
2024/04/14 01:07:50;;;;;;;5.80;2.60;;;;;;;14.43;69.74;98781.09;104428;1276;61157;-91
2024/04/14 01:16:45;;;;;;;3.80;2.80;;;;;;;14.47;69.69;98779.20;103847;1285;71273;-92
2024/04/14 01:19:35;;;;;;;3.00;2.50;;;;;;;14.50;69.60;98779.17;103379;1288;61355;-93
2024/04/14 01:22:12;;;;;;;3.60;3.00;;;;;;;14.52;69.44;98768.73;103471;1285;61162;-89
2024/04/14 01:44:49;;;;;;;3.00;2.80;;;;;;;14.57;69.07;98739.90;104244;1282;61469;-94
2024/04/14 01:49:32;;;;;;;;;;;;;;;;;;;;;
2024/04/14 01:59:06;;;;;;;5.50;3.10;;;;;;;14.56;68.87;98729.10;103294;1294;72565;-91
2024/04/14 02:02:54;;;;;;;4.00;2.90;;;;;;;14.56;68.83;98720.64;103024;1288;62823;-92
2024/04/14 02:06:24;;;;;;;;;;;;;;;14.57;68.58;98722.00;102655;1292;61093;-92
2024/04/14 02:09:13;;;;;;;;;;;;;;;;;;;;;
2024/04/14 02:15:44;;;;;;;6.70;5.30;;;;;;;14.55;67.79;98710.63;102168;1294;73133;-91
2024/04/14 02:18:26;;;;;;;;;;;;;;;;;;;;;
2024/04/14 02:21:28;;;;;;;8.70;6.10;;;;;;;14.44;67.24;98704.83;102821;1288;61264;-92
2024/04/14 02:24:11;;;;;;;9.50;5.60;;;;;;;14.32;67.14;98701.64;102715;1287;75124;-92
2024/04/14 02:26:55;;;;;;;8.30;5.60;;;;;;;14.22;67.44;98702.13;103280;1282;77338;-94
2024/04/14 02:29:46;;;;;;;7.10;5.40;;;;;;;14.08;67.56;98704.97;103901;1278;74079;-91
2024/04/14 02:32:57;;;;;;;8.40;6.50;;;;;;;13.97;67.94;98702.96;103935;1285;61116;-90
2024/04/14 02:36:32;;;;;;;;;;;;;;;;;;;;;
2024/04/14 02:39:57;;;;;;;8.70;6.10;;;;;;;13.69;68.98;98701.73;106583;1279;72473;-92
2024/04/14 02:43:13;;;;;;;6.00;5.10;;;;;;;13.60;69.69;98696.34;106495;1279;73691;-89
2024/04/14 02:46:04;;;;;;;7.20;5.70;;;;;;;13.54;70.12;98696.59;104360;1280;75174;-92
2024/04/14 02:49:01;;;;;;;7.10;5.20;;;;;;;13.50;70.45;98695.79;104061;1279;61574;-90
2024/04/14 02:52:00;;;;;;;8.40;6.00;;;;;;;13.48;70.76;98696.37;103797;1279;61013;-92
2024/04/14 02:54:46;;;;;;;8.00;6.30;;;;;;;13.46;71.14;98692.19;104320;1276;73134;-92
2024/04/14 02:58:09;;;;;;;8.70;6.90;;;;;;;13.44;71.35;98693.23;104159;1279;74705;-91
2024/04/14 03:01:17;;;;;;;;;;;;;;;;;;;;;
2024/04/14 03:04:25;;;;;;;10.80;8.10;;;;;;;13.37;71.84;98687.10;104136;1273;63400;-92
2024/04/14 03:07:11;;;;;;;13.00;8.10;;;;;;;13.32;72.17;98681.12;104099;1274;63067;-93
2024/04/14 03:10:19;;;;;;;6.50;5.70;;;;;;;13.31;72.59;98685.39;103872;1279;73022;-92
2024/04/14 03:13:24;;;;;;;7.20;5.20;;;;;;;13.28;73.15;98682.34;103732;1276;74008;-92
2024/04/14 03:16:06;;;;;;;8.30;6.70;;;;;;;13.27;73.59;98680.83;104060;1279;72509;-91
2024/04/14 03:19:07;;;;;;;7.20;6.50;;;;;;;13.26;73.61;98681.44;105746;1273;61088;-90
2024/04/14 03:22:08;;;;;;;8.40;5.90;;;;;;;13.25;73.76;98680.06;105406;1279;61262;-92
2024/04/14 03:25:25;;;;;;;5.90;5.40;;;;;;;13.24;73.70;98673.48;104503;1272;74154;-90
2024/04/14 03:28:24;;;;;;;12.50;6.10;;;;;;;13.22;73.77;98666.95;107493;1276;75912;-91
2024/04/14 03:31:39;;;;;;;10.10;5.90;;;;;;;13.21;73.75;98670.27;107536;1277;71734;-91
2024/04/14 03:34:30;;;;;;;7.90;4.70;;;;;;;13.21;73.71;98667.95;107273;1274;59693;-90
2024/04/14 03:37:58;;;;;;;;;;;;;;;;;;;;;
2024/04/14 03:41:31;;;;;;;;;;;;;;;;;;;;;
2024/04/14 03:44:37;;;;;;;6.00;4.40;;;;;;;13.25;73.81;98662.24;104399;1274;74790;-93
2024/04/14 03:47:30;;;;;;;6.90;4.80;;;;;;;13.28;73.70;98656.27;104342;1274;72246;-92
2024/04/14 03:50:23;;;;;;;5.00;3.80;;;;;;;13.32;73.62;98653.85;104460;1273;61582;-93
2024/04/14 03:53:08;;;;;;;8.50;5.00;;;;;;;13.35;73.49;98647.64;104454;1272;61074;-91
2024/04/14 03:56:25;;;;;;;5.60;4.90;;;;;;;13.40;73.31;98649.50;104576;1276;73042;-92
2024/04/14 03:59:41;;;;;;;9.70;5.10;;;;;;;13.42;73.24;98650.92;104640;1268;73666;-92
2024/04/14 04:02:19;;;;;;;7.90;5.20;;;;;;;13.43;73.13;98645.13;104755;1267;73141;-91
2024/04/14 04:05:24;;;;;;;6.10;5.50;;;;;;;13.44;73.20;98648.66;105010;1278;62190;-92
2024/04/14 04:08:09;;;;;;;8.60;5.50;;;;;;;13.43;73.22;98649.77;104685;1273;61086;-93
2024/04/14 04:11:13;;;;;;;9.40;5.00;;;;;;;13.42;73.08;98648.39;104458;1273;76339;-92
2024/04/14 04:14:44;;;;;;;;;;;;;;;;;;;;;
2024/04/14 04:17:35;;;;;;;7.40;4.30;;;;;;;13.40;73.16;98640.83;101540;1282;3682116;-91
2024/04/14 04:20:29;;;;;;;7.30;4.70;;;;;;;13.40;73.25;98640.47;103668;1282;62945;-92
2024/04/14 04:23:39;;;;;;;9.30;5.30;;;;;;;13.42;73.19;98634.06;103777;1283;61190;-93
2024/04/14 04:26:30;;;;;;;9.30;6.20;;;;;;;13.44;73.00;98627.74;103550;1289;73357;-90
2024/04/14 04:29:28;;;;;;;;;;;;;;;;;;;;;
2024/04/14 04:32:25;;;;;;;8.40;5.60;;;;;;;13.49;73.01;98630.26;104176;1276;72159;-91
2024/04/14 04:35:43;;;;;;;;;;;;;;;;;;;;;
2024/04/14 04:38:45;;;;;;;6.50;4.40;;;;;;;13.52;72.79;98622.27;105945;1275;61294;-91
2024/04/14 04:41:30;;;;;;;5.50;4.20;;;;;;;13.53;72.88;98620.58;105207;1277;74345;-91
2024/04/14 04:44:24;;;;;;;7.00;4.30;;;;;;;13.54;72.83;98610.40;104357;1279;73973;-92
2024/04/14 04:47:29;;;;;;;6.10;4.00;;;;;;;13.56;72.93;98607.77;104343;1277;72023;-91
2024/04/14 04:50:56;;;;;;;;;;;;;;;;;;;;;
2024/04/14 04:53:59;;;;;;;5.90;3.80;;;;;;;13.61;72.92;98592.41;104642;1273;62092;-92
2024/04/14 04:57:24;;;;;;;;;;;;;;;;;;;;;
2024/04/14 05:00:33;;;;;;;7.70;3.90;;;;;;;13.70;72.95;98580.38;104731;1274;75071;-93
2024/04/14 05:03:25;;;;;;;7.30;3.80;;;;;;;13.76;72.78;98582.95;104307;1273;74389;-91
2024/04/14 05:07:01;;;;;;;4.00;3.00;;;;;;;13.80;72.83;98579.06;105062;1273;61159;-92
2024/04/14 05:09:58;;;;;;;4.60;4.10;;;;;;;13.85;72.90;98573.60;104817;1271;61096;-91
2024/04/14 05:12:42;;;;;;;4.60;3.70;;;;;;;13.88;72.91;98562.06;106242;1270;73871;-91
2024/04/14 05:20:17;;;;;;;5.00;3.50;;;;;;;13.96;73.02;98561.17;104179;1282;73641;-93
2024/04/14 05:23:20;;;;;;;6.90;4.10;;;;;;;14.00;73.02;98558.17;104370;1282;61499;-94
2024/04/14 05:26:38;;;;;;;5.70;4.60;;;;;;;14.04;73.07;98559.61;106421;1283;61107;-90
2024/04/14 05:30:25;;;;;;;7.10;6.20;;;;;;;14.11;73.35;98559.69;106284;1285;72576;-91
2024/04/14 05:33:27;;;;;;;3.80;3.40;;;;;;;14.19;73.37;98553.38;106183;1288;76165;-92
2024/04/14 05:36:10;;;;;;;5.20;3.90;;;;;;;14.28;73.42;98551.04;106378;1285;73392;-90
2024/04/14 05:39:27;;;;;;;8.90;5.20;;;;;;;14.41;73.36;98545.23;106441;1285;61039;-91
2024/04/14 05:42:00;;;;;;;4.30;3.80;;;;;;;14.54;73.33;98542.27;105391;1288;61077;-89
2024/04/14 05:44:35;;;;;;;4.60;3.80;;;;;;;14.65;73.06;98542.11;106067;1287;71876;-91
2024/04/14 05:47:19;;;;;;;8.50;4.40;;;;;;;14.77;72.88;98545.60;106270;1286;74751;-91
2024/04/14 05:49:51;;;;;;;6.90;4.40;;;;;;;14.88;72.95;98546.48;106208;1287;72145;-90
2024/04/14 05:52:30;;;;;;;8.20;5.50;;;;;;;14.99;73.21;98543.38;106002;1287;63728;-91
2024/04/14 05:55:12;;;;;;;5.30;4.30;;;;;;;15.10;73.01;98538.84;106252;1284;59629;-91
2024/04/14 05:57:48;;;;;;;6.60;4.20;;;;;;;15.20;72.29;98538.52;106862;1279;72817;-90
2024/04/14 06:00:22;;;;;;;10.10;4.80;;;;;;;15.30;71.87;98531.48;106815;1279;73876;-91
2024/04/14 06:02:55;;;;;;;9.10;3.60;;;;;;;15.41;71.90;98528.96;106891;1273;73230;-91
2024/04/14 06:05:32;;;;;;;9.10;4.00;;;;;;;15.53;71.87;98531.88;107349;1274;60274;-91
2024/04/14 06:08:12;;;;;;;5.60;3.80;;;;;;;15.64;71.84;98530.55;107421;1273;59529;-90
2024/04/14 06:10:58;;;;;;;6.20;3.80;;;;;;;15.76;71.65;98527.14;107469;1273;73289;-89
2024/04/14 06:13:29;;;;;;;4.50;3.20;;;;;;;15.88;71.28;98536.05;107311;1273;75601;-91
2024/04/14 06:16:14;;;;;;;4.50;3.10;;;;;;;15.99;71.14;98542.83;107409;1273;74765;-88
2024/04/14 06:18:56;;;;;;;9.70;3.60;;;;;;;16.10;71.02;98535.31;107385;1274;60751;-91
2024/04/14 06:21:45;;;;;;;4.30;3.70;;;;;;;16.21;70.87;98527.14;107383;1273;60966;-90
2024/04/14 06:24:35;;;;;;;8.60;3.70;;;;;;;16.33;71.30;98514.46;107538;1274;73437;-91
2024/04/14 06:27:19;;;;;;;4.80;3.50;;;;;;;16.45;71.23;98502.33;107582;1270;73858;-92
2024/04/14 06:29:53;;;;;;;;;;;;;;;16.58;71.51;98500.65;107935;1268;71327;-91
2024/04/14 06:32:37;;;;;;;5.00;3.10;;;;;;;16.70;71.40;98500.66;108156;1267;60734;-90
2024/04/14 06:35:22;;;;;;;6.70;2.90;;;;;;;16.81;69.68;98499.00;108132;1268;59120;-91
2024/04/14 06:37:57;;;;;;;4.80;2.80;;;;;;;16.93;68.02;98493.45;107825;1265;73423;-91
2024/04/14 06:43:15;;;;;;;3.10;2.40;;;;;;;17.15;65.51;98487.88;106773;1281;72439;-92
2024/04/14 06:45:42;;;;;;;3.00;2.30;;;;;;;17.25;64.51;98484.60;106197;1273;60857;-90
2024/04/14 06:48:10;;;;;;;3.60;2.60;;;;;;;17.35;64.01;98484.02;105873;1273;61338;-90
2024/04/14 06:50:37;;;;;;;5.00;2.60;;;;;;;17.45;63.85;98481.63;105154;1274;61169;-91
2024/04/14 06:53:04;;;;;;;2.40;2.00;;;;;;;17.54;63.45;98473.52;104934;1274;61194;-92
2024/04/14 07:01:25;;;;;;;3.10;2.20;;;;;;;17.80;61.55;98460.44;107100;1279;58981;-90
2024/04/14 07:11:58;;;;;;;6.60;2.20;;;;;;;18.25;61.32;98448.79;106504;1269;76075;-87
2024/04/14 07:14:29;;;;;;;;;;;;;;;18.36;60.19;98452.27;106086;1271;71649;-89
2024/04/14 07:17:34;;;;;;;8.50;2.10;;;;;;;18.45;59.27;98449.01;106282;1267;61033;-88
2024/04/14 07:20:04;;;;;;;3.20;2.00;;;;;;;18.54;58.78;98450.80;106068;1271;60980;-88
2024/04/14 07:22:44;;;;;;;3.30;2.20;;;;;;;18.63;57.93;98452.48;105925;1276;74109;-88
2024/04/14 07:25:14;;;;;;;6.80;2.10;;;;;;;18.71;57.34;98445.95;106497;1270;74552;-89
2024/04/14 09:46:48;;;;;;;2.50;1.40;;;;;;;23.09;36.70;98301.08;105498;1300;74109;-91
2024/04/14 10:37:05;;;;;;;2.70;1.10;;;;;;;24.42;31.26;98242.20;106478;1285;60103;-92
2024/04/14 10:44:53;;;;;;;2.10;1.20;;;;;;;24.71;32.14;98241.73;105718;1295;73095;-92
2024/04/14 10:50:55;;;;;;;1.30;1.20;;;;;;;24.85;32.18;98225.76;107712;1276;72399;-93
2024/04/14 10:53:40;;;;;;;2.80;1.60;;;;;;;24.89;32.49;98224.75;107019;1285;59390;-94
2024/04/14 10:56:51;;;;;;;;;;;;;;;;;;;;;
2024/04/14 11:00:29;;;;;;;2.10;1.40;;;;;;;24.93;33.14;98209.81;106802;1280;72744;-92
2024/04/14 11:03:30;;;;;;;3.40;1.30;;;;;;;24.98;33.51;98195.90;106245;1288;73602;-92
2024/04/14 11:06:54;;;;;;;6.40;1.60;;;;;;;25.06;33.93;98196.10;106151;1289;73137;-94
2024/04/14 11:10:00;;;;;;;4.00;1.60;;;;;;;25.14;32.87;98190.39;105682;1295;60607;-91
2024/04/14 11:13:03;;;;;;;3.90;1.90;;;;;;;25.17;30.82;98188.79;105346;1300;59449;-93
2024/04/14 11:16:08;;;;;;;5.20;2.00;;;;;;;25.27;31.52;98190.45;105128;1302;74194;-92
2024/04/14 11:19:14;;;;;;;6.00;2.70;;;;;;;25.36;31.56;98196.29;105166;1302;73931;-93
2024/04/14 11:23:07;;;;;;;3.60;1.60;;;;;;;25.46;30.18;98194.33;105304;1302;73962;-92
2024/04/14 11:25:58;;;;;;;3.90;1.70;;;;;;;25.51;29.86;98188.89;105171;1305;61215;-91
2024/04/14 11:29:43;;;;;;;6.40;1.80;;;;;;;25.52;30.28;98198.16;104710;1311;58515;-91
2024/04/14 11:32:57;;;;;;;3.10;1.30;;;;;;;25.51;30.08;98182.96;104131;1315;72510;-92
2024/04/14 11:35:44;;;;;;;;;;;;;;;;;;;;;
2024/04/14 11:38:46;;;;;;;2.20;1.20;;;;;;;25.63;30.25;98180.48;104009;1311;70879;-93
2024/04/14 11:41:14;;;;;;;1.30;1.10;;;;;;;25.72;30.74;98177.80;104631;1305;62454;-93
2024/04/14 11:43:50;;;;;;;2.10;1.40;;;;;;;25.85;30.62;98182.64;104887;1305;60076;-89
2024/04/14 11:46:22;;;;;;;1.80;1.30;;;;;;;25.98;30.93;98175.35;105254;1300;74560;-90
2024/04/14 11:49:51;;;;;;;5.80;1.50;;;;;;;26.10;30.98;98177.02;105595;1293;74284;-90
2024/04/14 11:52:20;;;;;;;8.80;2.00;;;;;;;26.22;31.00;98174.13;105693;1294;72645;-92
2024/04/14 11:54:53;;;;;;;3.70;1.70;;;;;;;26.31;31.13;98166.63;105769;1296;59261;-90
2024/04/14 11:57:21;;;;;;;5.00;1.30;;;;;;;26.41;31.08;98175.77;105748;1299;61169;-91
2024/04/14 11:59:51;;;;;;;6.40;1.30;;;;;;;26.49;30.75;98163.21;105832;1294;76150;-89
2024/04/14 12:02:20;;;;;;;7.70;1.70;;;;;;;26.56;29.88;98165.86;106036;1295;74613;-92
2024/04/14 12:04:48;;;;;;;6.80;1.50;;;;;;;26.63;29.56;98160.30;105945;1292;72455;-93
2024/04/14 12:10:25;;;;;;;7.50;2.00;;;;;;;26.81;29.40;98162.88;105747;1297;59661;-91
2024/04/14 12:13:10;;;;;;;4.10;1.30;;;;;;;26.81;29.43;98160.11;106019;1293;73933;-92
2024/04/14 12:16:17;;;;;;;19.60;4.50;;;;;;;26.83;29.02;98158.48;106032;1297;75046;-92
2024/04/14 12:18:53;;;;;;;7.20;2.10;;;;;;;26.79;29.21;98169.15;106236;1289;72363;-89
2024/04/14 12:21:54;;;;;;;3.70;1.40;;;;;;;26.77;29.72;98153.09;106075;1295;59446;-89
2024/04/14 12:25:13;;;;;;;2.80;1.70;;;;;;;26.78;30.20;98145.45;106149;1293;59727;-91
2024/04/14 12:28:35;;;;;;;1.40;1.30;;;;;;;26.77;30.20;98141.90;105680;1298;73069;-93
2024/04/14 12:32:00;;;;;;;3.10;1.30;;;;;;;26.74;30.07;98142.12;105100;1302;74156;-92
2024/04/14 12:35:42;;;;;;;10.80;1.60;;;;;;;26.62;29.75;98145.94;104667;1311;71295;-93
2024/04/14 12:38:25;;;;;;;6.30;1.50;;;;;;;26.55;30.00;98146.08;104396;1306;61569;-93
2024/04/14 12:41:29;;;;;;;4.20;1.30;;;;;;;26.49;30.33;98131.83;104604;1306;59263;-92
2024/04/14 12:43:58;;;;;;;3.50;1.20;;;;;;;26.44;30.58;98139.27;104881;1306;74605;-92
2024/04/14 12:46:37;;;;;;;1.80;1.50;;;;;;;26.41;30.69;98145.13;104459;1309;75441;-93
2024/04/14 12:49:39;;;;;;;;;;;;;;;;;;;;;
2024/04/14 12:52:17;;;;;;;5.00;1.30;;;;;;;26.22;31.21;98146.04;105048;1299;59587;-90
2024/04/14 12:55:03;;;;;;;2.50;1.40;;;;;;;26.16;31.33;98143.21;105568;1297;61852;-94
2024/04/14 12:59:25;;;;;;;4.70;1.60;;;;;;;26.00;31.43;98146.70;105390;1302;73032;-93
2024/04/14 13:11:32;;;;;;;;;;;;;;;25.75;32.28;98109.89;103636;1321;59148;-93
2024/04/14 13:38:37;;;;;;;5.10;1.40;;;;;;;25.35;31.15;98097.25;109605;1260;58893;-91
2024/04/14 13:59:33;;;;;;;2.60;1.70;;;;;;;25.29;33.19;98100.90;108025;1260;615375;-94
2024/04/14 14:13:10;;;;;;;;;;;;;;;;;;;;;
2024/04/14 14:17:42;;;;;;;;;;;;;;;;;;;;;
2024/04/14 14:27:06;;;;;;;1.90;1.40;;;;;;;24.64;34.58;98081.19;104379;1292;70752;-92
2024/04/14 14:30:19;;;;;;;2.40;1.40;;;;;;;24.59;34.78;98076.81;103531;1295;74318;-92
